sensor_id;sensor_type;location;lat;lon;timestamp;temperature;humidity
75927;DHT22;64605;48.296;16.416;2022-11-15T00:01:40;9.90;81.20
75927;DHT22;64605;48.296;16.416;2022-11-15T00:04:06;9.80;81.20
75927;DHT22;64605;48.296;16.416;2022-11-15T00:06:32;9.80;81.40
75927;DHT22;64605;48.296;16.416;2022-11-15T00:08:59;9.90;81.50
75927;DHT22;64605;48.296;16.416;2022-11-15T00:11:25;9.90;81.40
75927;DHT22;64605;48.296;16.416;2022-11-15T00:13:51;9.90;81.30
75927;DHT22;64605;48.296;16.416;2022-11-15T00:16:16;9.80;81.50
75927;DHT22;64605;48.296;16.416;2022-11-15T00:18:42;9.70;81.60
75927;DHT22;64605;48.296;16.416;2022-11-15T00:21:11;9.70;81.90
75927;DHT22;64605;48.296;16.416;2022-11-15T00:23:37;9.80;81.80
75927;DHT22;64605;48.296;16.416;2022-11-15T00:26:03;9.90;81.50
75927;DHT22;64605;48.296;16.416;2022-11-15T00:28:29;9.90;81.30
75927;DHT22;64605;48.296;16.416;2022-11-15T00:31:04;9.90;81.30
75927;DHT22;64605;48.296;16.416;2022-11-15T00:33:30;9.90;81.30
75927;DHT22;64605;48.296;16.416;2022-11-15T00:36:04;9.90;81.30
75927;DHT22;64605;48.296;16.416;2022-11-15T00:38:32;10.00;81.30
75927;DHT22;64605;48.296;16.416;2022-11-15T00:40:58;10.00;81.10
75927;DHT22;64605;48.296;16.416;2022-11-15T00:43:23;10.10;80.80
75927;DHT22;64605;48.296;16.416;2022-11-15T00:45:49;10.10;80.80
75927;DHT22;64605;48.296;16.416;2022-11-15T00:48:14;10.20;80.80
75927;DHT22;64605;48.296;16.416;2022-11-15T00:50:40;10.10;80.70
75927;DHT22;64605;48.296;16.416;2022-11-15T00:53:06;10.10;80.80
75927;DHT22;64605;48.296;16.416;2022-11-15T00:55:32;10.00;80.70
75927;DHT22;64605;48.296;16.416;2022-11-15T00:57:57;10.00;81.00
75927;DHT22;64605;48.296;16.416;2022-11-15T01:00:23;10.00;81.00
75927;DHT22;64605;48.296;16.416;2022-11-15T01:02:48;10.00;81.10
75927;DHT22;64605;48.296;16.416;2022-11-15T01:05:14;10.00;81.20
75927;DHT22;64605;48.296;16.416;2022-11-15T01:07:40;9.90;81.40
75927;DHT22;64605;48.296;16.416;2022-11-15T01:10:06;9.90;81.70
75927;DHT22;64605;48.296;16.416;2022-11-15T01:12:32;9.90;81.80
75927;DHT22;64605;48.296;16.416;2022-11-15T01:14:58;9.90;81.80
75927;DHT22;64605;48.296;16.416;2022-11-15T01:17:24;10.00;81.90
75927;DHT22;64605;48.296;16.416;2022-11-15T01:19:49;10.00;81.70
75927;DHT22;64605;48.296;16.416;2022-11-15T01:22:16;10.10;81.40
75927;DHT22;64605;48.296;16.416;2022-11-15T01:24:41;10.10;81.30
75927;DHT22;64605;48.296;16.416;2022-11-15T01:27:07;10.00;81.30
75927;DHT22;64605;48.296;16.416;2022-11-15T01:29:33;10.00;81.50
75927;DHT22;64605;48.296;16.416;2022-11-15T01:31:59;10.10;81.40
75927;DHT22;64605;48.296;16.416;2022-11-15T01:34:24;10.10;81.40
75927;DHT22;64605;48.296;16.416;2022-11-15T01:36:50;10.10;81.50
75927;DHT22;64605;48.296;16.416;2022-11-15T01:39:16;10.20;81.20
75927;DHT22;64605;48.296;16.416;2022-11-15T01:41:42;10.10;80.80
75927;DHT22;64605;48.296;16.416;2022-11-15T01:47:20;10.20;80.90
75927;DHT22;64605;48.296;16.416;2022-11-15T01:50:14;10.20;80.80
75927;DHT22;64605;48.296;16.416;2022-11-15T01:52:41;10.20;80.80
75927;DHT22;64605;48.296;16.416;2022-11-15T01:55:18;10.30;80.90
75927;DHT22;64605;48.296;16.416;2022-11-15T01:57:46;10.30;80.70
75927;DHT22;64605;48.296;16.416;2022-11-15T02:00:13;10.30;80.40
75927;DHT22;64605;48.296;16.416;2022-11-15T02:02:39;10.40;80.40
75927;DHT22;64605;48.296;16.416;2022-11-15T02:05:05;10.40;80.20
75927;DHT22;64605;48.296;16.416;2022-11-15T02:07:32;10.40;79.80
75927;DHT22;64605;48.296;16.416;2022-11-15T02:10:04;10.40;79.60
75927;DHT22;64605;48.296;16.416;2022-11-15T02:12:32;10.40;79.70
75927;DHT22;64605;48.296;16.416;2022-11-15T02:14:58;10.40;79.80
75927;DHT22;64605;48.296;16.416;2022-11-15T02:29:11;10.20;80.80
75927;DHT22;64605;48.296;16.416;2022-11-15T02:39:39;10.30;79.80
75927;DHT22;64605;48.296;16.416;2022-11-15T02:42:07;10.40;79.90
75927;DHT22;64605;48.296;16.416;2022-11-15T02:44:56;10.40;79.60
75927;DHT22;64605;48.296;16.416;2022-11-15T02:47:27;10.30;79.70
75927;DHT22;64605;48.296;16.416;2022-11-15T02:49:59;10.30;79.90
75927;DHT22;64605;48.296;16.416;2022-11-15T02:52:26;10.30;80.00
75927;DHT22;64605;48.296;16.416;2022-11-15T02:54:54;10.30;79.90
75927;DHT22;64605;48.296;16.416;2022-11-15T03:05:53;10.20;80.20
75927;DHT22;64605;48.296;16.416;2022-11-15T03:11:12;10.00;80.70
75927;DHT22;64605;48.296;16.416;2022-11-15T03:13:47;10.00;81.20
75927;DHT22;64605;48.296;16.416;2022-11-15T03:18:54;9.80;82.00
75927;DHT22;64605;48.296;16.416;2022-11-15T03:21:22;9.70;82.10
75927;DHT22;64605;48.296;16.416;2022-11-15T03:23:48;9.80;82.30
75927;DHT22;64605;48.296;16.416;2022-11-15T03:26:18;9.80;82.20
75927;DHT22;64605;48.296;16.416;2022-11-15T03:29:00;9.90;82.00
75927;DHT22;64605;48.296;16.416;2022-11-15T03:31:29;9.80;82.10
75927;DHT22;64605;48.296;16.416;2022-11-15T03:34:34;9.80;82.20
75927;DHT22;64605;48.296;16.416;2022-11-15T03:37:02;9.80;82.40
75927;DHT22;64605;48.296;16.416;2022-11-15T03:39:29;9.70;82.50
75927;DHT22;64605;48.296;16.416;2022-11-15T03:42:30;9.70;82.70
75927;DHT22;64605;48.296;16.416;2022-11-15T03:45:18;9.70;82.80
75927;DHT22;64605;48.296;16.416;2022-11-15T03:47:58;9.70;82.90
75927;DHT22;64605;48.296;16.416;2022-11-15T03:50:25;9.70;82.90
75927;DHT22;64605;48.296;16.416;2022-11-15T03:52:51;9.70;82.90
75927;DHT22;64605;48.296;16.416;2022-11-15T03:55:20;9.80;83.00
75927;DHT22;64605;48.296;16.416;2022-11-15T03:57:49;9.80;83.00
75927;DHT22;64605;48.296;16.416;2022-11-15T04:00:16;9.70;83.10
75927;DHT22;64605;48.296;16.416;2022-11-15T04:02:41;9.70;83.30
75927;DHT22;64605;48.296;16.416;2022-11-15T04:05:07;9.70;83.40
75927;DHT22;64605;48.296;16.416;2022-11-15T04:07:33;9.70;83.50
75927;DHT22;64605;48.296;16.416;2022-11-15T04:09:59;9.60;83.40
75927;DHT22;64605;48.296;16.416;2022-11-15T04:12:31;9.60;83.80
75927;DHT22;64605;48.296;16.416;2022-11-15T04:15:05;9.50;84.00
75927;DHT22;64605;48.296;16.416;2022-11-15T04:17:39;9.50;84.10
75927;DHT22;64605;48.296;16.416;2022-11-15T04:20:28;9.60;84.00
75927;DHT22;64605;48.296;16.416;2022-11-15T04:26:01;9.50;83.90
75927;DHT22;64605;48.296;16.416;2022-11-15T04:28:27;9.40;84.20
75927;DHT22;64605;48.296;16.416;2022-11-15T04:30:53;9.50;84.30
75927;DHT22;64605;48.296;16.416;2022-11-15T04:33:19;9.50;84.20
75927;DHT22;64605;48.296;16.416;2022-11-15T04:35:44;9.50;84.30
75927;DHT22;64605;48.296;16.416;2022-11-15T04:38:30;9.50;84.20
75927;DHT22;64605;48.296;16.416;2022-11-15T04:40:56;9.50;84.30
75927;DHT22;64605;48.296;16.416;2022-11-15T04:43:22;9.50;84.40
75927;DHT22;64605;48.296;16.416;2022-11-15T04:45:48;9.50;84.40
75927;DHT22;64605;48.296;16.416;2022-11-15T04:48:13;9.50;84.40
75927;DHT22;64605;48.296;16.416;2022-11-15T04:50:39;9.50;84.50
75927;DHT22;64605;48.296;16.416;2022-11-15T04:53:04;9.40;84.30
75927;DHT22;64605;48.296;16.416;2022-11-15T04:55:31;9.40;84.60
75927;DHT22;64605;48.296;16.416;2022-11-15T04:58:00;9.40;84.80
75927;DHT22;64605;48.296;16.416;2022-11-15T05:00:27;9.40;85.00
75927;DHT22;64605;48.296;16.416;2022-11-15T05:02:53;9.40;85.00
75927;DHT22;64605;48.296;16.416;2022-11-15T05:05:37;9.40;85.80
75927;DHT22;64605;48.296;16.416;2022-11-15T05:08:03;9.50;84.70
75927;DHT22;64605;48.296;16.416;2022-11-15T05:10:29;9.50;84.70
75927;DHT22;64605;48.296;16.416;2022-11-15T05:12:55;9.50;84.40
75927;DHT22;64605;48.296;16.416;2022-11-15T05:15:21;9.40;84.60
75927;DHT22;64605;48.296;16.416;2022-11-15T05:17:46;9.30;84.90
75927;DHT22;64605;48.296;16.416;2022-11-15T05:20:12;9.30;85.20
75927;DHT22;64605;48.296;16.416;2022-11-15T05:22:38;9.20;85.20
75927;DHT22;64605;48.296;16.416;2022-11-15T05:25:04;9.20;85.20
75927;DHT22;64605;48.296;16.416;2022-11-15T05:27:30;9.20;85.30
75927;DHT22;64605;48.296;16.416;2022-11-15T05:29:55;9.20;85.00
75927;DHT22;64605;48.296;16.416;2022-11-15T05:32:21;9.20;85.20
75927;DHT22;64605;48.296;16.416;2022-11-15T05:34:47;9.10;85.40
75927;DHT22;64605;48.296;16.416;2022-11-15T05:37:13;9.10;85.60
75927;DHT22;64605;48.296;16.416;2022-11-15T05:39:39;9.10;85.70
75927;DHT22;64605;48.296;16.416;2022-11-15T05:44:33;9.20;85.30
75927;DHT22;64605;48.296;16.416;2022-11-15T05:47:03;9.20;85.10
75927;DHT22;64605;48.296;16.416;2022-11-15T05:49:31;9.30;86.10
75927;DHT22;64605;48.296;16.416;2022-11-15T05:52:03;9.20;85.00
75927;DHT22;64605;48.296;16.416;2022-11-15T05:54:31;9.20;85.00
75927;DHT22;64605;48.296;16.416;2022-11-15T05:56:57;9.20;85.10
75927;DHT22;64605;48.296;16.416;2022-11-15T05:59:23;9.20;85.10
75927;DHT22;64605;48.296;16.416;2022-11-15T06:01:48;9.20;85.10
75927;DHT22;64605;48.296;16.416;2022-11-15T06:04:14;9.20;85.30
75927;DHT22;64605;48.296;16.416;2022-11-15T06:06:40;9.20;85.30
75927;DHT22;64605;48.296;16.416;2022-11-15T06:09:05;9.10;85.40
75927;DHT22;64605;48.296;16.416;2022-11-15T06:11:31;9.10;85.40
75927;DHT22;64605;48.296;16.416;2022-11-15T06:13:57;9.10;85.60
75927;DHT22;64605;48.296;16.416;2022-11-15T06:16:22;9.00;85.50
75927;DHT22;64605;48.296;16.416;2022-11-15T06:18:48;9.00;85.90
75927;DHT22;64605;48.296;16.416;2022-11-15T06:21:13;9.00;85.80
75927;DHT22;64605;48.296;16.416;2022-11-15T06:23:39;9.00;86.00
75927;DHT22;64605;48.296;16.416;2022-11-15T06:26:05;9.00;85.90
75927;DHT22;64605;48.296;16.416;2022-11-15T06:28:31;9.00;85.90
75927;DHT22;64605;48.296;16.416;2022-11-15T06:31:09;9.00;85.70
75927;DHT22;64605;48.296;16.416;2022-11-15T06:33:35;9.10;85.80
75927;DHT22;64605;48.296;16.416;2022-11-15T06:36:04;9.00;85.70
75927;DHT22;64605;48.296;16.416;2022-11-15T06:38:30;9.00;85.60
75927;DHT22;64605;48.296;16.416;2022-11-15T06:41:05;9.00;85.70
75927;DHT22;64605;48.296;16.416;2022-11-15T06:43:31;9.00;85.80
75927;DHT22;64605;48.296;16.416;2022-11-15T06:46:01;9.10;85.90
75927;DHT22;64605;48.296;16.416;2022-11-15T06:48:28;9.10;85.60
75927;DHT22;64605;48.296;16.416;2022-11-15T06:50:56;9.10;85.60
75927;DHT22;64605;48.296;16.416;2022-11-15T06:53:22;9.10;85.60
75927;DHT22;64605;48.296;16.416;2022-11-15T06:55:48;9.20;85.70
75927;DHT22;64605;48.296;16.416;2022-11-15T06:58:14;9.20;85.60
75927;DHT22;64605;48.296;16.416;2022-11-15T07:00:40;9.30;85.50
75927;DHT22;64605;48.296;16.416;2022-11-15T07:03:06;9.30;85.20
75927;DHT22;64605;48.296;16.416;2022-11-15T07:05:32;9.20;85.30
75927;DHT22;64605;48.296;16.416;2022-11-15T07:07:58;9.30;85.40
75927;DHT22;64605;48.296;16.416;2022-11-15T07:10:25;9.30;85.20
75927;DHT22;64605;48.296;16.416;2022-11-15T07:12:54;9.30;85.40
75927;DHT22;64605;48.296;16.416;2022-11-15T07:15:23;9.20;85.50
75927;DHT22;64605;48.296;16.416;2022-11-15T07:17:49;9.30;85.60
75927;DHT22;64605;48.296;16.416;2022-11-15T07:20:15;9.40;85.30
75927;DHT22;64605;48.296;16.416;2022-11-15T07:22:42;9.40;85.20
75927;DHT22;64605;48.296;16.416;2022-11-15T07:25:08;9.50;85.30
75927;DHT22;64605;48.296;16.416;2022-11-15T07:27:34;9.60;84.90
75927;DHT22;64605;48.296;16.416;2022-11-15T07:30:00;9.70;84.70
75927;DHT22;64605;48.296;16.416;2022-11-15T07:32:26;9.60;84.50
75927;DHT22;64605;48.296;16.416;2022-11-15T07:34:51;9.60;84.40
75927;DHT22;64605;48.296;16.416;2022-11-15T07:37:17;9.60;84.50
75927;DHT22;64605;48.296;16.416;2022-11-15T07:39:43;9.50;84.90
75927;DHT22;64605;48.296;16.416;2022-11-15T07:42:09;9.50;85.00
75927;DHT22;64605;48.296;16.416;2022-11-15T07:44:55;9.50;84.70
75927;DHT22;64605;48.296;16.416;2022-11-15T07:47:21;9.50;84.80
75927;DHT22;64605;48.296;16.416;2022-11-15T07:49:46;9.60;84.70
75927;DHT22;64605;48.296;16.416;2022-11-15T07:52:13;9.60;84.60
75927;DHT22;64605;48.296;16.416;2022-11-15T07:54:39;9.50;84.90
75927;DHT22;64605;48.296;16.416;2022-11-15T07:57:05;9.50;85.00
75927;DHT22;64605;48.296;16.416;2022-11-15T07:59:32;9.50;85.10
75927;DHT22;64605;48.296;16.416;2022-11-15T08:01:58;9.60;85.00
75927;DHT22;64605;48.296;16.416;2022-11-15T08:04:23;9.70;85.00
75927;DHT22;64605;48.296;16.416;2022-11-15T08:06:49;9.80;84.40
75927;DHT22;64605;48.296;16.416;2022-11-15T08:09:14;9.80;84.30
75927;DHT22;64605;48.296;16.416;2022-11-15T08:11:40;9.80;84.30
75927;DHT22;64605;48.296;16.416;2022-11-15T08:14:06;9.90;84.10
75927;DHT22;64605;48.296;16.416;2022-11-15T08:16:31;9.90;84.10
75927;DHT22;64605;48.296;16.416;2022-11-15T08:18:57;9.90;83.90
75927;DHT22;64605;48.296;16.416;2022-11-15T08:21:23;10.00;84.00
75927;DHT22;64605;48.296;16.416;2022-11-15T08:23:50;10.00;83.80
75927;DHT22;64605;48.296;16.416;2022-11-15T08:26:16;9.90;83.80
75927;DHT22;64605;48.296;16.416;2022-11-15T08:28:41;9.90;83.90
75927;DHT22;64605;48.296;16.416;2022-11-15T08:31:17;9.80;84.30
75927;DHT22;64605;48.296;16.416;2022-11-15T08:33:43;9.70;84.40
75927;DHT22;64605;48.296;16.416;2022-11-15T08:36:13;9.70;84.50
75927;DHT22;64605;48.296;16.416;2022-11-15T08:38:40;9.70;84.60
75927;DHT22;64605;48.296;16.416;2022-11-15T08:41:05;9.70;84.70
75927;DHT22;64605;48.296;16.416;2022-11-15T08:43:31;9.70;84.70
75927;DHT22;64605;48.296;16.416;2022-11-15T08:45:57;9.70;85.00
75927;DHT22;64605;48.296;16.416;2022-11-15T08:48:23;9.70;85.00
75927;DHT22;64605;48.296;16.416;2022-11-15T08:50:51;9.70;85.00
75927;DHT22;64605;48.296;16.416;2022-11-15T08:53:18;9.70;85.00
75927;DHT22;64605;48.296;16.416;2022-11-15T08:55:44;9.70;85.00
75927;DHT22;64605;48.296;16.416;2022-11-15T08:58:09;9.70;85.00
75927;DHT22;64605;48.296;16.416;2022-11-15T09:00:35;9.80;85.10
75927;DHT22;64605;48.296;16.416;2022-11-15T09:03:04;9.80;85.10
75927;DHT22;64605;48.296;16.416;2022-11-15T09:05:30;9.90;84.80
75927;DHT22;64605;48.296;16.416;2022-11-15T09:07:55;9.90;84.80
75927;DHT22;64605;48.296;16.416;2022-11-15T09:10:21;10.00;84.80
75927;DHT22;64605;48.296;16.416;2022-11-15T09:12:47;10.10;84.20
75927;DHT22;64605;48.296;16.416;2022-11-15T09:15:15;10.10;84.00
75927;DHT22;64605;48.296;16.416;2022-11-15T09:17:40;10.00;83.90
75927;DHT22;64605;48.296;16.416;2022-11-15T09:20:07;10.00;84.10
75927;DHT22;64605;48.296;16.416;2022-11-15T09:22:33;10.00;84.00
75927;DHT22;64605;48.296;16.416;2022-11-15T09:24:59;10.00;83.60
75927;DHT22;64605;48.296;16.416;2022-11-15T09:27:29;10.00;83.90
75927;DHT22;64605;48.296;16.416;2022-11-15T09:29:55;10.00;84.00
75927;DHT22;64605;48.296;16.416;2022-11-15T09:32:21;9.90;84.10
75927;DHT22;64605;48.296;16.416;2022-11-15T09:34:48;9.90;84.00
75927;DHT22;64605;48.296;16.416;2022-11-15T09:37:13;9.90;84.00
75927;DHT22;64605;48.296;16.416;2022-11-15T09:39:39;9.90;84.00
75927;DHT22;64605;48.296;16.416;2022-11-15T09:47:38;10.00;84.10
75927;DHT22;64605;48.296;16.416;2022-11-15T09:50:13;10.00;84.20
75927;DHT22;64605;48.296;16.416;2022-11-15T09:52:43;10.10;83.90
75927;DHT22;64605;48.296;16.416;2022-11-15T09:55:11;10.10;84.90
75927;DHT22;64605;48.296;16.416;2022-11-15T09:57:57;10.10;84.10
75927;DHT22;64605;48.296;16.416;2022-11-15T10:00:47;10.10;83.90
75927;DHT22;64605;48.296;16.416;2022-11-15T10:03:26;10.30;83.90
75927;DHT22;64605;48.296;16.416;2022-11-15T10:06:00;10.30;83.20
75927;DHT22;64605;48.296;16.416;2022-11-15T10:11:25;10.40;82.90
75927;DHT22;64605;48.296;16.416;2022-11-15T10:13:56;10.40;83.10
75927;DHT22;64605;48.296;16.416;2022-11-15T10:22:28;10.50;82.60
75927;DHT22;64605;48.296;16.416;2022-11-15T10:27:42;10.50;82.70
75927;DHT22;64605;48.296;16.416;2022-11-15T10:30:18;10.40;82.70
75927;DHT22;64605;48.296;16.416;2022-11-15T10:32:45;10.40;82.70
75927;DHT22;64605;48.296;16.416;2022-11-15T10:35:24;10.50;82.80
75927;DHT22;64605;48.296;16.416;2022-11-15T10:37:50;10.50;83.00
75927;DHT22;64605;48.296;16.416;2022-11-15T10:40:23;10.50;82.70
75927;DHT22;64605;48.296;16.416;2022-11-15T10:45:32;10.60;82.60
75927;DHT22;64605;48.296;16.416;2022-11-15T10:50:41;10.60;82.00
75927;DHT22;64605;48.296;16.416;2022-11-15T10:55:50;10.50;82.30
75927;DHT22;64605;48.296;16.416;2022-11-15T11:03:36;10.60;82.60
75927;DHT22;64605;48.296;16.416;2022-11-15T11:06:15;10.70;82.40
75927;DHT22;64605;48.296;16.416;2022-11-15T11:08:57;10.70;82.20
75927;DHT22;64605;48.296;16.416;2022-11-15T11:11:24;10.80;82.10
75927;DHT22;64605;48.296;16.416;2022-11-15T11:13:50;10.70;81.50
75927;DHT22;64605;48.296;16.416;2022-11-15T11:16:34;10.60;81.90
75927;DHT22;64605;48.296;16.416;2022-11-15T11:19:22;10.70;82.20
75927;DHT22;64605;48.296;16.416;2022-11-15T11:21:59;10.70;82.20
75927;DHT22;64605;48.296;16.416;2022-11-15T11:27:31;10.70;82.40
75927;DHT22;64605;48.296;16.416;2022-11-15T11:30:09;10.80;82.40
75927;DHT22;64605;48.296;16.416;2022-11-15T11:40:41;10.70;82.00
75927;DHT22;64605;48.296;16.416;2022-11-15T11:48:43;10.90;81.30
75927;DHT22;64605;48.296;16.416;2022-11-15T11:51:23;10.80;81.20
75927;DHT22;64605;48.296;16.416;2022-11-15T11:53:58;10.90;81.70
75927;DHT22;64605;48.296;16.416;2022-11-15T11:56:32;10.90;81.60
75927;DHT22;64605;48.296;16.416;2022-11-15T12:01:57;11.00;81.30
75927;DHT22;64605;48.296;16.416;2022-11-15T12:04:34;11.10;80.80
75927;DHT22;64605;48.296;16.416;2022-11-15T12:07:20;11.00;80.90
75927;DHT22;64605;48.296;16.416;2022-11-15T12:10:19;11.10;81.00
75927;DHT22;64605;48.296;16.416;2022-11-15T12:13:10;11.10;81.20
75927;DHT22;64605;48.296;16.416;2022-11-15T12:15:47;11.00;81.00
75927;DHT22;64605;48.296;16.416;2022-11-15T12:18:16;11.00;81.30
75927;DHT22;64605;48.296;16.416;2022-11-15T12:23:31;11.10;81.20
75927;DHT22;64605;48.296;16.416;2022-11-15T12:26:19;11.00;81.30
75927;DHT22;64605;48.296;16.416;2022-11-15T12:28:59;11.00;81.30
75927;DHT22;64605;48.296;16.416;2022-11-15T12:31:44;11.00;81.20
75927;DHT22;64605;48.296;16.416;2022-11-15T12:36:46;11.10;81.30
75927;DHT22;64605;48.296;16.416;2022-11-15T12:39:13;11.10;81.30
75927;DHT22;64605;48.296;16.416;2022-11-15T12:41:41;11.10;81.30
75927;DHT22;64605;48.296;16.416;2022-11-15T12:47:08;11.20;81.40
75927;DHT22;64605;48.296;16.416;2022-11-15T12:49:47;11.30;81.40
75927;DHT22;64605;48.296;16.416;2022-11-15T12:52:14;11.20;81.00
75927;DHT22;64605;48.296;16.416;2022-11-15T13:02:40;11.20;81.40
75927;DHT22;64605;48.296;16.416;2022-11-15T13:17:51;11.20;81.90
75927;DHT22;64605;48.296;16.416;2022-11-15T13:20:23;11.40;81.70
75927;DHT22;64605;48.296;16.416;2022-11-15T13:30:55;11.30;81.40
75927;DHT22;64605;48.296;16.416;2022-11-15T13:33:36;11.30;81.40
75927;DHT22;64605;48.296;16.416;2022-11-15T13:36:06;11.30;81.40
75927;DHT22;64605;48.296;16.416;2022-11-15T13:38:37;11.30;81.40
75927;DHT22;64605;48.296;16.416;2022-11-15T13:41:18;11.40;81.50
75927;DHT22;64605;48.296;16.416;2022-11-15T13:43:46;11.40;81.50
75927;DHT22;64605;48.296;16.416;2022-11-15T13:46:28;11.40;81.50
75927;DHT22;64605;48.296;16.416;2022-11-15T13:48:56;11.40;81.40
75927;DHT22;64605;48.296;16.416;2022-11-15T13:56:42;11.50;80.90
75927;DHT22;64605;48.296;16.416;2022-11-15T13:59:30;11.60;80.80
75927;DHT22;64605;48.296;16.416;2022-11-15T14:01:59;11.60;80.90
75927;DHT22;64605;48.296;16.416;2022-11-15T14:04:27;11.60;80.90
75927;DHT22;64605;48.296;16.416;2022-11-15T14:06:59;11.60;80.90
75927;DHT22;64605;48.296;16.416;2022-11-15T14:09:39;11.60;80.70
75927;DHT22;64605;48.296;16.416;2022-11-15T14:12:32;11.50;80.80
75927;DHT22;64605;48.296;16.416;2022-11-15T14:15:00;11.50;81.20
75927;DHT22;64605;48.296;16.416;2022-11-15T14:19:57;11.60;81.20
75927;DHT22;64605;48.296;16.416;2022-11-15T14:22:25;11.60;81.10
75927;DHT22;64605;48.296;16.416;2022-11-15T14:27:35;11.80;80.50
75927;DHT22;64605;48.296;16.416;2022-11-15T14:30:01;11.70;80.50
75927;DHT22;64605;48.296;16.416;2022-11-15T14:32:42;11.60;80.60
75927;DHT22;64605;48.296;16.416;2022-11-15T14:35:16;11.60;81.90
75927;DHT22;64605;48.296;16.416;2022-11-15T14:37:43;11.50;81.20
75927;DHT22;64605;48.296;16.416;2022-11-15T14:40:16;11.40;81.50
75927;DHT22;64605;48.296;16.416;2022-11-15T14:42:43;11.40;81.50
75927;DHT22;64605;48.296;16.416;2022-11-15T14:45:15;11.40;81.50
75927;DHT22;64605;48.296;16.416;2022-11-15T14:47:41;11.50;82.60
75927;DHT22;64605;48.296;16.416;2022-11-15T14:50:12;11.50;81.50
75927;DHT22;64605;48.296;16.416;2022-11-15T14:52:38;11.50;81.70
75927;DHT22;64605;48.296;16.416;2022-11-15T14:55:25;11.50;81.50
75927;DHT22;64605;48.296;16.416;2022-11-15T14:57:53;11.50;81.50
75927;DHT22;64605;48.296;16.416;2022-11-15T15:00:19;11.50;81.50
75927;DHT22;64605;48.296;16.416;2022-11-15T15:02:45;11.40;81.50
75927;DHT22;64605;48.296;16.416;2022-11-15T15:05:18;11.40;81.50
75927;DHT22;64605;48.296;16.416;2022-11-15T15:07:45;11.50;81.50
75927;DHT22;64605;48.296;16.416;2022-11-15T15:10:12;11.50;81.50
75927;DHT22;64605;48.296;16.416;2022-11-15T15:12:38;11.50;81.50
75927;DHT22;64605;48.296;16.416;2022-11-15T15:15:04;11.50;81.60
75927;DHT22;64605;48.296;16.416;2022-11-15T15:17:30;11.50;81.50
75927;DHT22;64605;48.296;16.416;2022-11-15T15:19:56;11.50;81.50
75927;DHT22;64605;48.296;16.416;2022-11-15T15:22:22;11.50;81.50
75927;DHT22;64605;48.296;16.416;2022-11-15T15:24:52;11.50;81.60
75927;DHT22;64605;48.296;16.416;2022-11-15T15:27:18;11.50;81.50
75927;DHT22;64605;48.296;16.416;2022-11-15T15:29:44;11.50;81.50
75927;DHT22;64605;48.296;16.416;2022-11-15T15:32:10;11.50;81.60
75927;DHT22;64605;48.296;16.416;2022-11-15T15:34:36;11.60;81.60
75927;DHT22;64605;48.296;16.416;2022-11-15T15:39:48;11.40;81.50
75927;DHT22;64605;48.296;16.416;2022-11-15T15:42:14;11.40;81.80
75927;DHT22;64605;48.296;16.416;2022-11-15T15:44:40;11.40;81.90
75927;DHT22;64605;48.296;16.416;2022-11-15T15:47:22;11.40;82.00
75927;DHT22;64605;48.296;16.416;2022-11-15T15:49:49;11.40;81.80
75927;DHT22;64605;48.296;16.416;2022-11-15T15:52:15;11.50;81.80
75927;DHT22;64605;48.296;16.416;2022-11-15T15:54:41;11.50;81.70
75927;DHT22;64605;48.296;16.416;2022-11-15T15:57:09;11.50;81.50
75927;DHT22;64605;48.296;16.416;2022-11-15T15:59:36;11.40;81.70
75927;DHT22;64605;48.296;16.416;2022-11-15T16:02:02;11.40;81.90
75927;DHT22;64605;48.296;16.416;2022-11-15T16:04:28;11.50;82.00
75927;DHT22;64605;48.296;16.416;2022-11-15T16:06:59;11.40;81.90
75927;DHT22;64605;48.296;16.416;2022-11-15T16:09:24;11.50;81.70
75927;DHT22;64605;48.296;16.416;2022-11-15T16:12:09;11.50;81.50
75927;DHT22;64605;48.296;16.416;2022-11-15T16:14:35;11.50;81.50
75927;DHT22;64605;48.296;16.416;2022-11-15T16:17:01;11.60;81.60
75927;DHT22;64605;48.296;16.416;2022-11-15T16:19:26;11.50;81.50
75927;DHT22;64605;48.296;16.416;2022-11-15T16:21:52;11.60;81.60
75927;DHT22;64605;48.296;16.416;2022-11-15T16:24:18;11.60;81.60
75927;DHT22;64605;48.296;16.416;2022-11-15T16:26:45;11.60;81.60
75927;DHT22;64605;48.296;16.416;2022-11-15T16:29:10;11.50;81.60
75927;DHT22;64605;48.296;16.416;2022-11-15T16:31:37;11.50;81.50
75927;DHT22;64605;48.296;16.416;2022-11-15T16:34:02;11.50;81.60
75927;DHT22;64605;48.296;16.416;2022-11-15T16:36:30;11.50;81.90
75927;DHT22;64605;48.296;16.416;2022-11-15T16:38:58;11.50;82.00
75927;DHT22;64605;48.296;16.416;2022-11-15T16:41:24;11.40;81.90
75927;DHT22;64605;48.296;16.416;2022-11-15T16:43:50;11.40;82.10
75927;DHT22;64605;48.296;16.416;2022-11-15T16:46:24;11.40;82.20
75927;DHT22;64605;48.296;16.416;2022-11-15T16:48:51;11.40;82.40
75927;DHT22;64605;48.296;16.416;2022-11-15T16:51:18;11.30;83.50
75927;DHT22;64605;48.296;16.416;2022-11-15T16:53:43;11.30;82.50
75927;DHT22;64605;48.296;16.416;2022-11-15T16:58:46;11.40;82.20
75927;DHT22;64605;48.296;16.416;2022-11-15T17:01:22;11.40;82.10
75927;DHT22;64605;48.296;16.416;2022-11-15T17:03:48;11.50;81.50
75927;DHT22;64605;48.296;16.416;2022-11-15T17:06:13;11.40;81.50
75927;DHT22;64605;48.296;16.416;2022-11-15T17:08:40;11.50;81.40
75927;DHT22;64605;48.296;16.416;2022-11-15T17:11:07;11.40;81.20
75927;DHT22;64605;48.296;16.416;2022-11-15T17:13:33;11.40;81.40
75927;DHT22;64605;48.296;16.416;2022-11-15T17:16:25;11.40;81.20
75927;DHT22;64605;48.296;16.416;2022-11-15T17:18:51;11.40;81.30
75927;DHT22;64605;48.296;16.416;2022-11-15T17:21:19;11.40;81.30
75927;DHT22;64605;48.296;16.416;2022-11-15T17:23:45;11.50;81.40
75927;DHT22;64605;48.296;16.416;2022-11-15T17:26:12;11.50;81.10
75927;DHT22;64605;48.296;16.416;2022-11-15T17:28:39;11.50;81.20
75927;DHT22;64605;48.296;16.416;2022-11-15T17:31:10;11.40;81.20
75927;DHT22;64605;48.296;16.416;2022-11-15T17:33:37;11.50;81.40
75927;DHT22;64605;48.296;16.416;2022-11-15T17:36:05;11.40;81.40
75927;DHT22;64605;48.296;16.416;2022-11-15T17:38:31;11.40;81.50
75927;DHT22;64605;48.296;16.416;2022-11-15T17:41:06;11.50;81.40
75927;DHT22;64605;48.296;16.416;2022-11-15T17:43:35;11.50;81.40
75927;DHT22;64605;48.296;16.416;2022-11-15T17:46:06;11.50;81.30
75927;DHT22;64605;48.296;16.416;2022-11-15T17:48:32;11.50;81.50
75927;DHT22;64605;48.296;16.416;2022-11-15T17:51:00;11.40;81.50
75927;DHT22;64605;48.296;16.416;2022-11-15T17:53:30;11.40;81.60
75927;DHT22;64605;48.296;16.416;2022-11-15T17:56:07;11.40;81.50
75927;DHT22;64605;48.296;16.416;2022-11-15T17:58:33;11.50;81.60
75927;DHT22;64605;48.296;16.416;2022-11-15T18:01:11;11.50;81.50